Westpoint, IN (47992)

1:26 PM EDT on August 02, 2015 (GMT -0400)
SW Lafayette | | Change Station
CLOSE
Current Station
Personal Weather Station
Location: Lafayette, IN
Elevation: 627 ft
Nearby Weather Stations
Active Advisory: Flood Warning

Elev 627 ft 40.36 °N, 86.94 °W | Updated 1 minute ago

Clear
Clear
88.2 °F
Feels Like 96 °F
N
1.3
Wind Variable Wind from SW
Gusts 2.7 mph

Today
High -- | Low -- °F
--% Chance of Precip.
Yesterday
High -- | Low -- °F
Precip. -- in
6:46 AM 9:01 PM
Waning Gibbous, 93% visible
Pressure 29.89 in
Visibility 10.0 miles
Clouds Clear
Heat Index 96 °F
Dew Point 72 °F
Humidity 60%
Rainfall 0.00 in
Snow Depth Not available.
UV 10 out of 12
Pollen 7.70 out of 12
Air Quality Not available.
Flu Activity Not available.
METAR KLAF 021654Z 23010G19KT 10SM CLR 29/21 A2990 RMK AO2 SLP121 T02890211

More Conditions Fewer Conditions

Pressure 29.89 in
Visibility 10.0 miles
Clouds Clear
Heat Index 96 °F
Dew Point 72 °F
Humidity 60%
Rainfall 0.00 in
Snow Depth Not available.
UV 10 out of 12
Pollen 7.70 out of 12
Air Quality Not available.
Flu Activity Not available.
METAR KLAF 021654Z 23010G19KT 10SM CLR 29/21 A2990 RMK AO2 SLP121 T02890211

More Conditions Fewer Conditions

10-Day Weather Forecast

×

Almanac

Astronomy

Aug. 02, 2015 Rise Set
Actual Time
Civil Twilight
Nautical Twilight
Astronomical Twilight
Moon
Length of Visible Light
Length of Day
Tomorrow will be .
, % of the Moon is Illuminated

Today's Extremes

State Highs State Lows

Community

WunderPhotos

Upload Photos

1,843,319 photos uploaded!

WunderBlogs® & News

Nearby

Air Quality

  Air Quality AQ Index Pollutant
Not available.

Snow Depth

Station Depth Elevation

Earthquake Activity

City Distance Mag. Time & Date
Minimum magnitude displayed is 2.5.

Coastal Water Temperatures

Place Temperature

Stations

Nearby Weather Stations

Station Location Temp. Windchill Dew Point Humidity Wind Precip. Elev Updated Type
                   
Flood Warning
Statement as of 10:30 AM EDT on August 02, 2015

The Flood Warning continues for
the Wabash River at Lafayette.
* Until further notice.
* At 10:15 am Sunday the stage was 12.1 feet.
* Flood stage is 11.0 feet.
* Minor flooding is occurring and minor flooding is forecast.
* Forecast... the river will continue to fall to a stage of 11.7 feet
by tomorrow morning.
* At 12.0 feet... high water affects a few low river Cabins and County
roads.


Lat... Lon 4056 8673 4048 8688 4040 8709 4033 8709
      4040 8688 4054 8670